sensor_id;sensor_type;location;lat;lon;timestamp;pressure;altitude;pressure_sealevel;temperature;humidity
56912;BME280;42800;53.928;27.662;2023-07-08T00:02:25;98586.56;;;15.69;100.00
56912;BME280;42800;53.928;27.662;2023-07-08T00:04:51;98589.66;;;15.74;100.00
56912;BME280;42800;53.928;27.662;2023-07-08T00:07:19;98584.22;;;15.67;100.00
56912;BME280;42800;53.928;27.662;2023-07-08T00:09:46;98552.13;;;15.43;100.00
56912;BME280;42800;53.928;27.662;2023-07-08T00:12:12;98551.75;;;15.41;100.00
56912;BME280;42800;53.928;27.662;2023-07-08T00:14:37;98550.94;;;15.44;100.00
56912;BME280;42800;53.928;27.662;2023-07-08T00:17:09;98547.34;;;15.47;100.00
56912;BME280;42800;53.928;27.662;2023-07-08T00:19:36;98544.94;;;15.49;100.00
56912;BME280;42800;53.928;27.662;2023-07-08T00:22:08;98531.09;;;15.18;100.00
56912;BME280;42800;53.928;27.662;2023-07-08T00:24:35;98529.28;;;15.39;100.00
56912;BME280;42800;53.928;27.662;2023-07-08T00:27:01;98531.38;;;15.27;100.00
56912;BME280;42800;53.928;27.662;2023-07-08T00:29:27;98520.34;;;15.27;100.00
56912;BME280;42800;53.928;27.662;2023-07-08T00:31:53;98521.94;;;15.25;100.00
56912;BME280;42800;53.928;27.662;2023-07-08T00:34:19;98517.97;;;15.26;100.00
56912;BME280;42800;53.928;27.662;2023-07-08T00:36:45;98499.50;;;15.19;100.00
56912;BME280;42800;53.928;27.662;2023-07-08T00:39:13;98504.47;;;15.01;100.00
56912;BME280;42800;53.928;27.662;2023-07-08T00:41:41;98490.19;;;15.10;100.00
56912;BME280;42800;53.928;27.662;2023-07-08T00:44:10;98489.06;;;15.03;100.00
56912;BME280;42800;53.928;27.662;2023-07-08T00:46:50;98486.25;;;15.07;100.00
56912;BME280;42800;53.928;27.662;2023-07-08T00:49:26;98490.19;;;15.06;100.00
56912;BME280;42800;53.928;27.662;2023-07-08T00:51:54;98490.22;;;15.02;100.00
56912;BME280;42800;53.928;27.662;2023-07-08T00:54:21;98488.34;;;14.96;100.00
56912;BME280;42800;53.928;27.662;2023-07-08T00:56:49;98491.94;;;14.89;100.00
56912;BME280;42800;53.928;27.662;2023-07-08T00:59:21;98492.28;;;14.95;100.00
56912;BME280;42800;53.928;27.662;2023-07-08T01:01:48;98503.63;;;14.63;100.00
56912;BME280;42800;53.928;27.662;2023-07-08T01:04:18;98506.28;;;14.77;100.00
56912;BME280;42800;53.928;27.662;2023-07-08T01:06:48;98501.56;;;14.74;100.00
56912;BME280;42800;53.928;27.662;2023-07-08T01:09:24;98503.88;;;14.79;100.00
56912;BME280;42800;53.928;27.662;2023-07-08T01:11:53;98507.88;;;14.74;100.00
56912;BME280;42800;53.928;27.662;2023-07-08T01:14:20;98512.69;;;14.67;100.00
56912;BME280;42800;53.928;27.662;2023-07-08T01:16:48;98508.63;;;14.78;100.00
56912;BME280;42800;53.928;27.662;2023-07-08T01:19:19;98514.22;;;14.71;100.00
56912;BME280;42800;53.928;27.662;2023-07-08T01:21:58;98510.22;;;14.76;100.00
56912;BME280;42800;53.928;27.662;2023-07-08T01:24:24;98513.03;;;14.69;100.00
56912;BME280;42800;53.928;27.662;2023-07-08T01:26:51;98518.88;;;14.78;100.00
56912;BME280;42800;53.928;27.662;2023-07-08T01:29:17;98514.56;;;14.77;100.00
56912;BME280;42800;53.928;27.662;2023-07-08T01:31:43;98520.13;;;14.73;100.00
56912;BME280;42800;53.928;27.662;2023-07-08T01:34:14;98524.47;;;14.71;100.00
56912;BME280;42800;53.928;27.662;2023-07-08T01:36:44;98537.41;;;14.77;100.00
56912;BME280;42800;53.928;27.662;2023-07-08T01:39:13;98535.50;;;14.71;100.00
56912;BME280;42800;53.928;27.662;2023-07-08T01:41:40;98534.38;;;14.65;100.00
56912;BME280;42800;53.928;27.662;2023-07-08T01:44:23;98539.47;;;14.70;100.00
56912;BME280;42800;53.928;27.662;2023-07-08T01:46:50;98537.53;;;14.63;100.00
56912;BME280;42800;53.928;27.662;2023-07-08T01:49:20;98551.66;;;14.69;100.00
56912;BME280;42800;53.928;27.662;2023-07-08T01:51:47;98558.78;;;14.70;100.00
56912;BME280;42800;53.928;27.662;2023-07-08T01:54:14;98558.00;;;14.66;100.00
56912;BME280;42800;53.928;27.662;2023-07-08T01:56:40;98554.50;;;14.62;100.00
56912;BME280;42800;53.928;27.662;2023-07-08T01:59:06;98581.72;;;14.56;100.00
56912;BME280;42800;53.928;27.662;2023-07-08T02:01:32;98570.69;;;14.56;100.00
56912;BME280;42800;53.928;27.662;2023-07-08T02:03:58;98585.66;;;14.55;100.00
56912;BME280;42800;53.928;27.662;2023-07-08T02:06:24;98580.53;;;14.57;100.00
56912;BME280;42800;53.928;27.662;2023-07-08T02:08:50;98582.13;;;14.54;100.00
56912;BME280;42800;53.928;27.662;2023-07-08T02:11:17;98578.19;;;14.55;100.00
56912;BME280;42800;53.928;27.662;2023-07-08T02:13:43;98585.28;;;14.49;100.00
56912;BME280;42800;53.928;27.662;2023-07-08T02:16:09;98594.75;;;14.52;100.00
56912;BME280;42800;53.928;27.662;2023-07-08T02:18:35;98597.91;;;14.54;100.00
56912;BME280;42800;53.928;27.662;2023-07-08T02:21:00;98588.00;;;14.60;100.00
56912;BME280;42800;53.928;27.662;2023-07-08T02:23:26;98591.59;;;14.53;100.00
56912;BME280;42800;53.928;27.662;2023-07-08T02:25:53;98603.38;;;14.57;100.00
56912;BME280;42800;53.928;27.662;2023-07-08T02:28:20;98604.16;;;14.62;100.00
56912;BME280;42800;53.928;27.662;2023-07-08T02:30:46;98580.13;;;15.07;100.00
56912;BME280;42800;53.928;27.662;2023-07-08T02:33:12;98539.75;;;15.54;100.00
56912;BME280;42800;53.928;27.662;2023-07-08T02:35:38;98518.66;;;15.98;100.00
56912;BME280;42800;53.928;27.662;2023-07-08T02:38:04;98537.22;;;16.25;100.00
56912;BME280;42800;53.928;27.662;2023-07-08T02:40:30;98570.34;;;16.56;100.00
56912;BME280;42800;53.928;27.662;2023-07-08T02:42:56;98627.22;;;16.87;100.00
56912;BME280;42800;53.928;27.662;2023-07-08T02:45:22;98672.81;;;17.06;100.00
56912;BME280;42800;53.928;27.662;2023-07-08T02:47:48;98712.31;;;17.34;100.00
56912;BME280;42800;53.928;27.662;2023-07-08T02:50:14;98755.03;;;17.60;100.00
56912;BME280;42800;53.928;27.662;2023-07-08T02:52:42;98798.56;;;17.86;100.00
56912;BME280;42800;53.928;27.662;2023-07-08T02:55:08;98830.09;;;17.96;100.00
56912;BME280;42800;53.928;27.662;2023-07-08T02:57:34;98857.91;;;18.13;100.00
56912;BME280;42800;53.928;27.662;2023-07-08T03:00:00;98908.53;;;18.44;100.00
56912;BME280;42800;53.928;27.662;2023-07-08T03:02:27;98937.97;;;18.38;100.00
56912;BME280;42800;53.928;27.662;2023-07-08T03:04:53;98964.13;;;18.84;100.00
56912;BME280;42800;53.928;27.662;2023-07-08T03:07:19;98992.06;;;18.96;100.00
56912;BME280;42800;53.928;27.662;2023-07-08T03:09:45;98991.56;;;19.01;100.00
56912;BME280;42800;53.928;27.662;2023-07-08T03:12:11;99036.06;;;19.41;100.00
56912;BME280;42800;53.928;27.662;2023-07-08T03:14:37;99046.00;;;19.19;100.00
56912;BME280;42800;53.928;27.662;2023-07-08T03:17:04;99051.94;;;19.21;100.00
56912;BME280;42800;53.928;27.662;2023-07-08T03:19:31;99061.03;;;19.65;100.00
56912;BME280;42800;53.928;27.662;2023-07-08T03:21:57;99090.22;;;20.13;100.00
56912;BME280;42800;53.928;27.662;2023-07-08T03:24:24;99103.38;;;19.92;100.00
56912;BME280;42800;53.928;27.662;2023-07-08T03:26:50;99120.59;;;20.24;100.00
56912;BME280;42800;53.928;27.662;2023-07-08T03:29:19;99138.19;;;20.37;100.00
56912;BME280;42800;53.928;27.662;2023-07-08T03:31:45;99150.97;;;20.54;100.00
56912;BME280;42800;53.928;27.662;2023-07-08T03:34:12;99164.31;;;20.79;100.00
56912;BME280;42800;53.928;27.662;2023-07-08T03:36:42;99174.66;;;20.95;100.00
56912;BME280;42800;53.928;27.662;2023-07-08T03:39:14;99170.28;;;20.61;100.00
56912;BME280;42800;53.928;27.662;2023-07-08T03:41:40;99187.75;;;20.98;100.00
56912;BME280;42800;53.928;27.662;2023-07-08T03:44:06;99200.91;;;21.47;100.00
56912;BME280;42800;53.928;27.662;2023-07-08T03:46:32;99211.19;;;21.50;100.00
56912;BME280;42800;53.928;27.662;2023-07-08T03:48:58;99217.28;;;21.90;100.00
56912;BME280;42800;53.928;27.662;2023-07-08T03:51:27;99224.44;;;21.91;100.00
56912;BME280;42800;53.928;27.662;2023-07-08T03:53:54;99237.97;;;22.22;100.00
56912;BME280;42800;53.928;27.662;2023-07-08T03:56:20;99229.69;;;22.18;100.00
56912;BME280;42800;53.928;27.662;2023-07-08T03:58:46;99243.94;;;22.37;100.00
56912;BME280;42800;53.928;27.662;2023-07-08T04:01:14;99251.44;;;22.52;100.00
56912;BME280;42800;53.928;27.662;2023-07-08T04:03:41;99250.97;;;22.41;100.00
56912;BME280;42800;53.928;27.662;2023-07-08T04:06:07;99255.16;;;22.49;100.00
56912;BME280;42800;53.928;27.662;2023-07-08T04:08:33;99258.88;;;22.85;100.00
56912;BME280;42800;53.928;27.662;2023-07-08T04:10:59;99269.09;;;23.04;100.00
56912;BME280;42800;53.928;27.662;2023-07-08T04:13:25;99262.59;;;23.20;100.00
56912;BME280;42800;53.928;27.662;2023-07-08T04:15:54;99285.53;;;23.28;100.00
56912;BME280;42800;53.928;27.662;2023-07-08T04:18:21;99281.16;;;23.39;100.00
56912;BME280;42800;53.928;27.662;2023-07-08T04:20:47;99284.53;;;22.96;100.00
56912;BME280;42800;53.928;27.662;2023-07-08T04:23:17;99284.63;;;23.43;100.00
56912;BME280;42800;53.928;27.662;2023-07-08T04:25:43;99287.84;;;23.42;100.00
56912;BME280;42800;53.928;27.662;2023-07-08T04:28:10;99293.19;;;23.87;97.11
56912;BME280;42800;53.928;27.662;2023-07-08T04:30:36;99296.97;;;23.93;96.76
56912;BME280;42800;53.928;27.662;2023-07-08T04:33:06;99297.53;;;23.88;96.26
56912;BME280;42800;53.928;27.662;2023-07-08T04:35:33;99303.84;;;24.49;93.37
56912;BME280;42800;53.928;27.662;2023-07-08T04:38:00;99308.00;;;24.98;88.63
56912;BME280;42800;53.928;27.662;2023-07-08T04:40:26;99312.81;;;24.97;87.36
56912;BME280;42800;53.928;27.662;2023-07-08T04:42:52;99310.97;;;24.72;88.32
56912;BME280;42800;53.928;27.662;2023-07-08T04:45:19;99310.47;;;25.18;86.19
56912;BME280;42800;53.928;27.662;2023-07-08T04:47:45;99312.38;;;25.30;85.84
56912;BME280;42800;53.928;27.662;2023-07-08T04:50:17;99307.19;;;25.69;82.75
56912;BME280;42800;53.928;27.662;2023-07-08T04:52:43;99311.13;;;25.31;83.20
56912;BME280;42800;53.928;27.662;2023-07-08T04:55:12;99308.88;;;25.57;81.62
56912;BME280;42800;53.928;27.662;2023-07-08T04:57:38;99305.59;;;25.58;80.62
56912;BME280;42800;53.928;27.662;2023-07-08T05:00:06;99307.13;;;26.09;79.24
56912;BME280;42800;53.928;27.662;2023-07-08T05:02:35;99303.97;;;26.25;78.00
56912;BME280;42800;53.928;27.662;2023-07-08T05:05:01;99306.31;;;26.45;76.47
56912;BME280;42800;53.928;27.662;2023-07-08T05:07:27;99314.28;;;26.28;77.27
56912;BME280;42800;53.928;27.662;2023-07-08T05:09:53;99313.66;;;26.24;75.42
56912;BME280;42800;53.928;27.662;2023-07-08T05:12:19;99307.66;;;25.18;77.33
56912;BME280;42800;53.928;27.662;2023-07-08T05:14:44;99311.16;;;26.08;76.48
56912;BME280;42800;53.928;27.662;2023-07-08T05:17:11;99314.75;;;26.45;75.03
56912;BME280;42800;53.928;27.662;2023-07-08T05:19:38;99309.56;;;26.71;73.76
56912;BME280;42800;53.928;27.662;2023-07-08T05:22:06;99320.28;;;27.10;72.77
56912;BME280;42800;53.928;27.662;2023-07-08T05:24:32;99314.75;;;27.25;70.45
56912;BME280;42800;53.928;27.662;2023-07-08T05:26:58;99319.19;;;27.83;69.39
56912;BME280;42800;53.928;27.662;2023-07-08T05:29:24;99325.84;;;27.61;67.94
56912;BME280;42800;53.928;27.662;2023-07-08T05:31:51;99324.03;;;27.07;69.93
56912;BME280;42800;53.928;27.662;2023-07-08T05:34:17;99311.81;;;27.19;70.17
56912;BME280;42800;53.928;27.662;2023-07-08T05:36:43;99315.81;;;27.36;69.50
56912;BME280;42800;53.928;27.662;2023-07-08T05:39:09;99319.22;;;27.40;68.99
56912;BME280;42800;53.928;27.662;2023-07-08T05:41:36;99314.78;;;27.82;67.12
56912;BME280;42800;53.928;27.662;2023-07-08T05:44:02;99314.78;;;27.82;66.99
56912;BME280;42800;53.928;27.662;2023-07-08T05:46:28;99307.63;;;27.96;65.82
56912;BME280;42800;53.928;27.662;2023-07-08T05:48:54;99309.53;;;27.65;68.12
56912;BME280;42800;53.928;27.662;2023-07-08T05:51:20;99301.38;;;27.43;68.49
56912;BME280;42800;53.928;27.662;2023-07-08T05:53:47;99307.94;;;27.98;65.58
56912;BME280;42800;53.928;27.662;2023-07-08T05:56:12;99306.03;;;28.04;65.30
56912;BME280;42800;53.928;27.662;2023-07-08T05:58:38;99297.31;;;28.17;66.16
56912;BME280;42800;53.928;27.662;2023-07-08T06:01:04;99301.69;;;28.86;64.08
56912;BME280;42800;53.928;27.662;2023-07-08T06:03:30;99299.72;;;28.92;65.10
56912;BME280;42800;53.928;27.662;2023-07-08T06:05:56;99297.50;;;29.11;62.33
56912;BME280;42800;53.928;27.662;2023-07-08T06:08:22;99304.69;;;29.27;62.58
56912;BME280;42800;53.928;27.662;2023-07-08T06:10:49;99301.84;;;29.27;60.70
56912;BME280;42800;53.928;27.662;2023-07-08T06:13:15;99300.47;;;29.22;60.38
56912;BME280;42800;53.928;27.662;2023-07-08T06:15:41;99287.97;;;29.08;59.99
56912;BME280;42800;53.928;27.662;2023-07-08T06:18:07;99300.06;;;29.09;60.35
56912;BME280;42800;53.928;27.662;2023-07-08T06:20:34;99288.81;;;28.02;63.04
56912;BME280;42800;53.928;27.662;2023-07-08T06:23:00;99283.81;;;28.21;63.43
56912;BME280;42800;53.928;27.662;2023-07-08T06:25:27;99288.75;;;28.65;61.74
56912;BME280;42800;53.928;27.662;2023-07-08T06:27:53;99287.16;;;29.23;60.72
56912;BME280;42800;53.928;27.662;2023-07-08T06:30:19;99284.25;;;29.52;59.40
56912;BME280;42800;53.928;27.662;2023-07-08T06:32:45;99279.50;;;28.79;59.41
56912;BME280;42800;53.928;27.662;2023-07-08T06:35:11;99283.88;;;29.10;58.63
56912;BME280;42800;53.928;27.662;2023-07-08T06:37:37;99288.53;;;28.98;58.47
56912;BME280;42800;53.928;27.662;2023-07-08T06:40:03;99275.31;;;28.45;60.18
56912;BME280;42800;53.928;27.662;2023-07-08T06:42:30;99277.59;;;28.31;60.34
56912;BME280;42800;53.928;27.662;2023-07-08T06:44:56;99277.97;;;28.09;62.30
56912;BME280;42800;53.928;27.662;2023-07-08T06:47:22;99274.09;;;28.22;61.56
56912;BME280;42800;53.928;27.662;2023-07-08T06:49:48;99266.66;;;28.78;59.58
56912;BME280;42800;53.928;27.662;2023-07-08T06:52:14;99266.28;;;29.35;58.61
56912;BME280;42800;53.928;27.662;2023-07-08T06:54:40;99274.41;;;29.63;56.96
56912;BME280;42800;53.928;27.662;2023-07-08T06:57:06;99267.69;;;29.25;57.55
56912;BME280;42800;53.928;27.662;2023-07-08T06:59:33;99270.19;;;29.38;58.04
56912;BME280;42800;53.928;27.662;2023-07-08T07:02:00;99261.16;;;29.19;57.44
56912;BME280;42800;53.928;27.662;2023-07-08T07:04:26;99254.47;;;29.16;58.25
56912;BME280;42800;53.928;27.662;2023-07-08T07:06:52;99257.03;;;28.55;60.40
56912;BME280;42800;53.928;27.662;2023-07-08T07:09:17;99253.94;;;28.82;59.70
56912;BME280;42800;53.928;27.662;2023-07-08T07:11:43;99250.50;;;28.93;58.67
56912;BME280;42800;53.928;27.662;2023-07-08T07:14:09;99256.06;;;29.38;58.21
56912;BME280;42800;53.928;27.662;2023-07-08T07:16:35;99246.69;;;28.37;60.91
56912;BME280;42800;53.928;27.662;2023-07-08T07:19:02;99253.13;;;28.82;57.47
56912;BME280;42800;53.928;27.662;2023-07-08T07:21:47;99267.06;;;29.36;56.82
56912;BME280;42800;53.928;27.662;2023-07-08T07:24:13;99253.66;;;29.66;56.02
56912;BME280;42800;53.928;27.662;2023-07-08T07:26:39;99253.38;;;29.64;55.14
56912;BME280;42800;53.928;27.662;2023-07-08T07:29:05;99240.63;;;29.53;53.93
56912;BME280;42800;53.928;27.662;2023-07-08T07:31:32;99237.19;;;28.64;56.93
56912;BME280;42800;53.928;27.662;2023-07-08T07:33:58;99253.59;;;29.45;55.85
56912;BME280;42800;53.928;27.662;2023-07-08T07:36:25;99249.63;;;30.39;54.48
56912;BME280;42800;53.928;27.662;2023-07-08T07:38:51;99245.19;;;30.33;53.46
56912;BME280;42800;53.928;27.662;2023-07-08T07:41:17;99235.97;;;30.38;53.81
56912;BME280;42800;53.928;27.662;2023-07-08T07:43:43;99239.91;;;30.46;53.17
56912;BME280;42800;53.928;27.662;2023-07-08T07:46:09;99239.72;;;30.81;53.04
56912;BME280;42800;53.928;27.662;2023-07-08T07:48:36;99239.88;;;31.04;51.74
56912;BME280;42800;53.928;27.662;2023-07-08T07:51:02;99238.00;;;30.95;51.12
56912;BME280;42800;53.928;27.662;2023-07-08T07:53:28;99237.91;;;30.52;51.54
56912;BME280;42800;53.928;27.662;2023-07-08T07:55:57;99245.19;;;30.12;52.68
56912;BME280;42800;53.928;27.662;2023-07-08T07:58:23;99226.91;;;30.60;52.34
56912;BME280;42800;53.928;27.662;2023-07-08T08:00:49;99220.00;;;30.92;52.01
56912;BME280;42800;53.928;27.662;2023-07-08T08:03:15;99226.66;;;30.89;51.98
56912;BME280;42800;53.928;27.662;2023-07-08T08:05:42;99220.91;;;30.78;51.83
56912;BME280;42800;53.928;27.662;2023-07-08T08:08:08;99212.47;;;30.26;52.40
56912;BME280;42800;53.928;27.662;2023-07-08T08:10:36;99221.88;;;30.43;52.93
56912;BME280;42800;53.928;27.662;2023-07-08T08:13:02;99212.00;;;30.59;52.92
56912;BME280;42800;53.928;27.662;2023-07-08T08:15:28;99210.53;;;31.01;52.60
56912;BME280;42800;53.928;27.662;2023-07-08T08:17:54;99217.44;;;30.94;53.03
56912;BME280;42800;53.928;27.662;2023-07-08T08:20:22;99220.31;;;31.00;51.74
56912;BME280;42800;53.928;27.662;2023-07-08T08:22:49;99216.53;;;31.57;50.81
56912;BME280;42800;53.928;27.662;2023-07-08T08:25:17;99215.94;;;30.41;51.84
56912;BME280;42800;53.928;27.662;2023-07-08T08:27:43;99222.44;;;31.11;51.26
56912;BME280;42800;53.928;27.662;2023-07-08T08:30:11;99219.41;;;31.63;50.48
56912;BME280;42800;53.928;27.662;2023-07-08T08:32:37;99216.88;;;31.28;50.52
56912;BME280;42800;53.928;27.662;2023-07-08T08:35:03;99216.19;;;29.91;51.65
56912;BME280;42800;53.928;27.662;2023-07-08T08:37:29;99221.81;;;30.38;52.16
56912;BME280;42800;53.928;27.662;2023-07-08T08:39:55;99220.03;;;30.98;51.54
56912;BME280;42800;53.928;27.662;2023-07-08T08:42:26;99226.78;;;31.06;51.42
56912;BME280;42800;53.928;27.662;2023-07-08T08:44:54;99221.44;;;30.82;50.67
56912;BME280;42800;53.928;27.662;2023-07-08T08:47:30;99226.31;;;30.50;50.58
56912;BME280;42800;53.928;27.662;2023-07-08T08:50:02;99224.41;;;30.67;50.84
56912;BME280;42800;53.928;27.662;2023-07-08T08:52:30;99216.31;;;30.55;50.85
56912;BME280;42800;53.928;27.662;2023-07-08T08:54:56;99210.66;;;30.02;52.17
56912;BME280;42800;53.928;27.662;2023-07-08T08:57:32;99208.03;;;30.19;51.90
56912;BME280;42800;53.928;27.662;2023-07-08T09:00:03;99197.53;;;30.25;53.75
56912;BME280;42800;53.928;27.662;2023-07-08T09:02:34;99211.94;;;30.54;51.30
56912;BME280;42800;53.928;27.662;2023-07-08T09:05:04;99214.22;;;31.13;50.83
56912;BME280;42800;53.928;27.662;2023-07-08T09:07:37;99211.56;;;31.04;49.97
56912;BME280;42800;53.928;27.662;2023-07-08T09:10:10;99221.91;;;31.07;49.15
56912;BME280;42800;53.928;27.662;2023-07-08T09:12:39;99215.31;;;30.84;49.72
56912;BME280;42800;53.928;27.662;2023-07-08T09:15:13;99216.31;;;30.55;48.69
56912;BME280;42800;53.928;27.662;2023-07-08T09:17:39;99211.19;;;30.53;49.58
56912;BME280;42800;53.928;27.662;2023-07-08T09:20:17;99212.41;;;30.78;49.77
56912;BME280;42800;53.928;27.662;2023-07-08T09:22:51;99210.88;;;31.14;49.10
56912;BME280;42800;53.928;27.662;2023-07-08T09:25:24;99209.59;;;30.78;49.00
56912;BME280;42800;53.928;27.662;2023-07-08T09:27:50;99213.09;;;29.89;49.84
56912;BME280;42800;53.928;27.662;2023-07-08T09:30:18;99209.56;;;29.53;50.63
56912;BME280;42800;53.928;27.662;2023-07-08T09:32:46;99208.31;;;30.01;50.25
56912;BME280;42800;53.928;27.662;2023-07-08T09:35:17;99205.19;;;29.73;50.54
56912;BME280;42800;53.928;27.662;2023-07-08T09:37:46;99196.34;;;29.86;49.98
56912;BME280;42800;53.928;27.662;2023-07-08T09:40:16;99200.34;;;29.99;51.01
56912;BME280;42800;53.928;27.662;2023-07-08T09:42:44;99203.69;;;29.57;50.64
56912;BME280;42800;53.928;27.662;2023-07-08T09:45:14;99197.41;;;29.68;50.19
56912;BME280;42800;53.928;27.662;2023-07-08T09:47:43;99199.81;;;29.75;51.31
56912;BME280;42800;53.928;27.662;2023-07-08T09:50:17;99204.94;;;29.36;50.45
56912;BME280;42800;53.928;27.662;2023-07-08T09:52:44;99189.47;;;29.92;50.11
56912;BME280;42800;53.928;27.662;2023-07-08T09:55:10;99195.31;;;30.35;49.96
56912;BME280;42800;53.928;27.662;2023-07-08T09:57:37;99186.50;;;30.54;49.22
56912;BME280;42800;53.928;27.662;2023-07-08T10:00:09;99186.66;;;30.44;49.70
56912;BME280;42800;53.928;27.662;2023-07-08T10:02:40;99193.03;;;29.87;49.93
56912;BME280;42800;53.928;27.662;2023-07-08T10:05:14;99184.59;;;29.31;50.90
56912;BME280;42800;53.928;27.662;2023-07-08T10:07:44;99197.97;;;28.22;52.85
56912;BME280;42800;53.928;27.662;2023-07-08T10:10:15;99197.38;;;29.06;52.33
56912;BME280;42800;53.928;27.662;2023-07-08T10:12:42;99189.50;;;28.96;51.57
56912;BME280;42800;53.928;27.662;2023-07-08T10:15:18;99181.38;;;29.39;51.51
56912;BME280;42800;53.928;27.662;2023-07-08T10:17:46;99174.06;;;28.76;52.85
56912;BME280;42800;53.928;27.662;2023-07-08T10:20:13;99181.41;;;29.03;52.40
56912;BME280;42800;53.928;27.662;2023-07-08T10:22:46;99181.56;;;29.35;53.50
56912;BME280;42800;53.928;27.662;2023-07-08T10:25:24;99176.31;;;30.10;52.03
56912;BME280;42800;53.928;27.662;2023-07-08T10:27:57;99187.00;;;29.39;51.44
56912;BME280;42800;53.928;27.662;2023-07-08T10:30:27;99181.38;;;29.80;52.19
56912;BME280;42800;53.928;27.662;2023-07-08T10:33:06;99173.81;;;29.71;51.33
56912;BME280;42800;53.928;27.662;2023-07-08T10:35:42;99191.38;;;30.01;50.05
56912;BME280;42800;53.928;27.662;2023-07-08T10:38:28;99180.13;;;30.07;49.42
56912;BME280;42800;53.928;27.662;2023-07-08T10:41:01;99176.22;;;29.58;50.36
56912;BME280;42800;53.928;27.662;2023-07-08T10:43:47;99174.16;;;29.58;51.09
56912;BME280;42800;53.928;27.662;2023-07-08T10:46:24;99168.09;;;29.86;52.28
56912;BME280;42800;53.928;27.662;2023-07-08T10:49:20;99173.53;;;29.89;52.13
56912;BME280;42800;53.928;27.662;2023-07-08T10:51:55;99181.03;;;29.72;51.99
56912;BME280;42800;53.928;27.662;2023-07-08T10:54:44;99170.47;;;27.87;52.67
56912;BME280;42800;53.928;27.662;2023-07-08T10:57:26;99174.56;;;28.01;52.28
56912;BME280;42800;53.928;27.662;2023-07-08T11:00:02;99162.41;;;27.56;54.69
56912;BME280;42800;53.928;27.662;2023-07-08T11:05:41;99173.41;;;26.96;55.20
56912;BME280;42800;53.928;27.662;2023-07-08T11:08:14;99168.31;;;26.34;55.59
56912;BME280;42800;53.928;27.662;2023-07-08T11:10:48;99159.44;;;26.17;57.60
56912;BME280;42800;53.928;27.662;2023-07-08T11:13:17;99160.03;;;26.31;58.81
56912;BME280;42800;53.928;27.662;2023-07-08T11:15:49;99151.69;;;26.03;59.44
56912;BME280;42800;53.928;27.662;2023-07-08T11:18:21;99149.50;;;25.61;58.12
56912;BME280;42800;53.928;27.662;2023-07-08T11:20:54;99139.72;;;24.48;60.38
56912;BME280;42800;53.928;27.662;2023-07-08T11:23:26;99151.84;;;24.76;61.29
56912;BME280;42800;53.928;27.662;2023-07-08T11:26:02;99143.81;;;24.56;64.42
56912;BME280;42800;53.928;27.662;2023-07-08T11:28:30;99149.53;;;24.93;63.70
56912;BME280;42800;53.928;27.662;2023-07-08T11:30:59;99147.19;;;24.92;63.04
56912;BME280;42800;53.928;27.662;2023-07-08T11:33:26;99151.56;;;25.02;62.50
56912;BME280;42800;53.928;27.662;2023-07-08T11:35:56;99153.84;;;25.16;61.38
56912;BME280;42800;53.928;27.662;2023-07-08T11:38:25;99150.53;;;24.37;61.41
56912;BME280;42800;53.928;27.662;2023-07-08T11:40:53;99152.09;;;24.69;61.23
56912;BME280;42800;53.928;27.662;2023-07-08T11:43:21;99147.91;;;25.14;59.04
56912;BME280;42800;53.928;27.662;2023-07-08T11:45:49;99144.34;;;24.82;59.56
56912;BME280;42800;53.928;27.662;2023-07-08T11:48:24;99138.72;;;25.14;58.80
56912;BME280;42800;53.928;27.662;2023-07-08T11:50:52;99144.81;;;25.58;59.02
56912;BME280;42800;53.928;27.662;2023-07-08T11:53:35;99147.31;;;25.74;58.63
56912;BME280;42800;53.928;27.662;2023-07-08T11:56:02;99144.34;;;25.78;58.15
56912;BME280;42800;53.928;27.662;2023-07-08T11:58:31;99140.44;;;25.75;58.90
56912;BME280;42800;53.928;27.662;2023-07-08T12:00:59;99141.72;;;25.84;57.93
56912;BME280;42800;53.928;27.662;2023-07-08T12:03:32;99135.47;;;25.89;57.76
56912;BME280;42800;53.928;27.662;2023-07-08T12:05:59;99149.28;;;25.09;58.72
56912;BME280;42800;53.928;27.662;2023-07-08T12:08:36;99148.47;;;25.00;59.15
56912;BME280;42800;53.928;27.662;2023-07-08T12:11:03;99142.53;;;24.98;60.03
56912;BME280;42800;53.928;27.662;2023-07-08T12:13:29;99135.63;;;24.80;59.59
56912;BME280;42800;53.928;27.662;2023-07-08T12:15:55;99143.13;;;24.43;60.44
56912;BME280;42800;53.928;27.662;2023-07-08T12:18:24;99139.13;;;24.00;61.97
56912;BME280;42800;53.928;27.662;2023-07-08T12:20:52;99141.53;;;24.11;61.61
56912;BME280;42800;53.928;27.662;2023-07-08T12:23:22;99135.69;;;24.27;62.41
56912;BME280;42800;53.928;27.662;2023-07-08T12:25:50;99130.34;;;24.42;61.43
56912;BME280;42800;53.928;27.662;2023-07-08T12:28:16;99139.47;;;24.64;59.64
56912;BME280;42800;53.928;27.662;2023-07-08T12:30:43;99129.66;;;24.60;58.27
56912;BME280;42800;53.928;27.662;2023-07-08T12:33:12;99130.72;;;24.53;58.60
56912;BME280;42800;53.928;27.662;2023-07-08T12:35:40;99124.78;;;24.51;59.52
56912;BME280;42800;53.928;27.662;2023-07-08T12:38:18;99124.28;;;24.84;60.01
56912;BME280;42800;53.928;27.662;2023-07-08T12:40:45;99121.59;;;24.71;62.40
56912;BME280;42800;53.928;27.662;2023-07-08T12:43:12;99127.91;;;24.53;63.30
56912;BME280;42800;53.928;27.662;2023-07-08T12:45:39;99120.97;;;24.36;65.70
56912;BME280;42800;53.928;27.662;2023-07-08T12:48:05;99117.03;;;24.02;67.37
56912;BME280;42800;53.928;27.662;2023-07-08T12:50:31;99116.13;;;23.61;67.83
56912;BME280;42800;53.928;27.662;2023-07-08T12:52:57;99123.09;;;23.79;66.61
56912;BME280;42800;53.928;27.662;2023-07-08T12:55:23;99116.25;;;24.02;64.80